Latest Weather Observations for Devonport Airport

IDT60801

Issued at 1:05 pm EDT Thursday 23 October 2014 (issued every 30 minutes, with the page automatically refreshed every 10 minutes)

About weather observations | Map of weather stations | Latest weather observations for TAS | Other Formats
Station Details ID: 091126 Name: DEVONPORT AIRPORT Lat: -41.17 Lon: 146.43 Height: 8.0 m
Data from the previous 72 hours. | See also: Recent months at Devonport Airport
Date/Time
EDT
Temp
°C
App
Temp
°C
Dew
Point
Rel
Hum
%
Delta-T
°C
Wind Press
QNH
hPa
Press
MSL
hPa
Rain
since 9 am
mm
Dir
 
Spd
km/h
Gust
km/h
Spd
kts
Gust
kts
23/01:00pm 17.7 13.8 8.6 55 4.7 N 19 20 10 11 1022.6 1022.6 0.0
23/12:30pm 17.8 14.1 7.8 52 5.1 SE 17 24 9 13 1022.7 1022.7 0.0
23/12:00pm 18.1 13.8 7.8 51 5.2 ESE 20 32 11 17 1023.0 1023.0 0.0
23/11:30am 17.7 12.2 7.4 51 5.2 ESE 26 37 14 20 1023.1 1023.1 0.0
23/11:00am 17.4 10.9 6.3 48 5.4 ESE 30 39 16 21 1023.3 1023.3 0.0
23/10:30am 16.5 11.4 5.8 49 5.2 SE 22 30 12 16 1023.2 1023.2 0.0
23/10:00am 16.2 9.8 5.2 48 5.2 SSE 28 39 15 21 1022.7 1022.7 0.0
23/09:30am 15.2 6.1 5.7 53 4.5 SSE 43 52 23 28 1022.0 1022.0 0.0
23/09:00am 14.5 6.0 6.8 60 3.7 SSE 41 59 22 32 1021.9 1021.9 0.0
23/08:30am 13.9 5.3 8.3 69 2.8 SSE 43 52 23 28 1021.6 1021.6 0.0
23/08:00am 13.1 6.6 8.8 75 2.1 SSE 33 43 18 23 1021.5 1021.5 0.0
23/07:30am 13.0 6.8 9.4 79 1.8 SSE 32 43 17 23 1021.1 1021.1 0.0
23/07:00am 13.0 9.2 9.8 81 1.6 SSE 20 26 11 14 1020.5 1020.5 0.0
23/06:30am 11.8 10.4 9.5 86 1.2 SW 7 9 4 5 1020.2 1020.2 0.0
23/06:00am 11.0 9.4 8.8 86 1.1 SW 7 11 4 6 1019.9 1019.9 0.0
23/05:30am 12.8 10.4 10.0 83 1.4 SE 13 19 7 10 1019.6 1019.6 0.0
23/05:00am 13.0 10.6 10.2 83 1.4 SE 13 20 7 11 1019.3 1019.3 0.0
23/04:30am 12.2 10.0 9.4 83 1.4 SE 11 15 6 8 1018.7 1018.7 0.0
23/04:00am 13.0 9.4 9.8 81 1.6 SSE 19 24 10 13 1018.3 1018.3 0.0
23/03:30am 13.1 10.7 9.9 81 1.6 SSE 13 17 7 9 1017.7 1017.8 0.0
23/03:00am 13.0 12.0 10.2 83 1.4 SSE 6 11 3 6 1017.6 1017.7 0.0
23/02:30am 13.1 10.4 10.5 84 1.4 SSE 15 19 8 10 1017.3 1017.4 0.0
23/02:00am 11.9 9.9 10.1 89 0.9 SSE 11 15 6 8 1017.3 1017.4 0.0
23/01:30am 12.1 10.2 10.5 90 0.8 SSE 11 15 6 8 1017.2 1017.3 0.0
23/01:00am 11.6 8.9 10.5 93 0.6 SSE 15 19 8 10 1017.5 1017.6 0.0
23/12:30am 10.9 9.3 10.1 95 0.4 SSE 9 13 5 7 1017.5 1017.6 0.0
23/12:00am 11.3 9.4 10.5 95 0.4 S 11 15 6 8 1017.2 1017.3 0.0
 
Date/Time
EDT
Temp
°C
App
Temp
°C
Dew
Point
Rel
Hum
%
Delta-T
°C
Wind Press
QNH
hPa
Press
MSL
hPa
Rain
since 9 am
mm
Dir
 
Spd
km/h
Gust
km/h
Spd
kts
Gust
kts
22/11:30pm 11.1 9.1 10.2 94 0.5 SSE 11 13 6 7 1016.9 1017.0 0.0
22/11:00pm 10.5 9.1 9.6 94 0.5 SSE 7 9 4 5 1016.7 1016.8 0.0
22/10:30pm 11.5 10.4 10.6 94 0.5 E 7 9 4 5 1016.5 1016.6 0.0
22/10:00pm 11.0 9.3 9.9 93 0.6 NE 9 11 5 6 1016.5 1016.6 0.0
22/09:30pm 12.2 11.3 10.8 91 0.7 SSE 6 9 3 5 1016.7 1016.8 0.0
22/09:00pm 12.6 11.8 11.0 90 0.8 SE 6 6 3 3 1016.8 1016.9 0.0
22/08:30pm 13.2 11.9 11.4 89 1.0 WNW 9 13 5 7 1016.6 1016.7 0.0
22/08:00pm 13.9 12.4 11.9 88 1.1 WNW 11 15 6 8 1016.4 1016.5 0.0
22/07:30pm 14.7 13.8 12.6 87 1.1 N 9 20 5 11 1016.2 1016.3 0.0
22/07:00pm 14.5 13.5 12.2 86 1.2 WSW 9 17 5 9 1016.4 1016.5 0.0
22/06:30pm 14.8 12.3 12.3 85 1.4 NNE 17 20 9 11 1015.2 1015.3 0.0
22/06:00pm 14.9 14.2 11.9 82 1.6 W 7 11 4 6 1016.5 1016.6 0.0
22/05:30pm 15.2 13.5 12.5 84 1.5 NW 13 19 7 10 1017.2 1017.3 0.0
22/05:00pm 15.2 13.2 11.6 79 1.9 N 13 15 7 8 1016.2 1016.3 0.0
22/04:30pm 15.5 14.3 11.5 77 2.2 NE 9 13 5 7 1016.6 1016.7 0.0
22/04:00pm 16.3 14.7 11.5 73 2.6 N 11 15 6 8 1016.7 1016.8 0.0
22/03:30pm 16.4 15.0 12.2 76 2.3 N 11 15 6 8 1017.3 1017.4 0.0
22/03:00pm 16.4 14.9 11.8 74 2.5 N 11 15 6 8 1017.3 1017.4 0.0
22/02:30pm 16.1 14.2 11.9 76 2.3 N 13 17 7 9 1017.5 1017.6 0.0
22/02:00pm 16.8 14.4 11.5 71 2.9 NNE 15 20 8 11 1018.0 1018.0 0.0
22/01:30pm 16.8 14.3 11.1 69 3.1 NNE 15 20 8 11 1018.6 1018.6 0.0
22/01:00pm 16.8 14.8 11.5 71 2.9 N 13 17 7 9 1019.1 1019.1 0.0
22/12:30pm 16.6 14.4 10.7 68 3.1 N 13 17 7 9 1019.6 1019.6 0.0
22/12:00pm 16.8 15.0 10.9 68 3.2 N 11 17 6 9 1020.2 1020.2 0.0
22/11:30am 16.4 14.4 10.3 67 3.2 N 11 15 6 8 1021.0 1021.0 0.0
22/11:00am 16.0 14.6 9.7 66 3.3 E 7 15 4 8 1021.5 1021.5 0.0
22/10:30am 15.9 14.2 9.8 67 3.2 ESE 9 15 5 8 1022.1 1022.1 0.0
22/10:00am 15.5 12.6 9.8 69 3.0 SSE 15 20 8 11 1022.4 1022.4 0.0
22/09:30am 14.5 11.0 8.9 69 2.8 S 17 20 9 11 1022.6 1022.6 0.0
22/09:00am 13.9 10.4 8.9 72 2.5 S 17 20 9 11 1022.5 1022.5 -
22/08:30am 12.8 10.0 8.7 76 2.0 SSE 13 17 7 9 1022.7 1022.7 -
22/08:00am 12.4 9.6 8.5 77 1.9 S 13 17 7 9 1023.2 1023.2 -
22/07:30am 12.2 9.0 8.3 77 1.9 S 15 19 8 10 1023.3 1023.3 -
22/07:00am 12.1 9.3 8.6 79 1.7 S 13 15 7 8 1023.4 1023.4 -
22/06:30am 11.9 9.1 8.4 79 1.7 SSE 13 15 7 8 1023.6 1023.6 -
22/06:00am 11.9 8.6 8.2 78 1.8 SSE 15 19 8 10 1023.5 1023.5 -
22/05:30am 11.8 8.9 8.3 79 1.7 SSE 13 15 7 8 1023.9 1023.9 -
22/05:00am 11.6 8.7 8.3 80 1.6 SSE 13 15 7 8 1024.1 1024.1 -
22/04:30am 11.6 7.9 8.1 79 1.7 SSE 17 19 9 10 1024.6 1024.6 -
22/04:00am 11.5 8.3 8.4 81 1.5 SSE 15 19 8 10 1024.8 1024.8 -
22/03:30am 11.7 8.4 8.0 78 1.8 SSE 15 19 8 10 1025.3 1025.3 -
22/03:00am 11.4 8.1 8.1 80 1.6 SSE 15 17 8 9 1025.6 1025.6 0.0
22/02:30am 11.4 7.7 7.9 79 1.7 S 17 19 9 10 1026.5 1026.5 -
22/02:00am 11.7 8.4 8.2 79 1.7 SSE 15 19 8 10 1026.9 1026.9 -
22/01:30am 11.5 8.6 8.0 79 1.7 SSE 13 17 7 9 1027.4 1027.4 -
22/01:00am 11.7 8.0 8.0 78 1.8 SSE 17 19 9 10 1028.1 1028.1 -
22/12:30am 11.4 8.4 7.9 79 1.7 SSE 13 17 7 9 1028.3 1028.3 -
22/12:00am 11.5 8.5 7.6 77 1.9 SSE 13 17 7 9 1028.7 1028.7 -
 
Date/Time
EDT
Temp
°C
App
Temp
°C
Dew
Point
Rel
Hum
%
Delta-T
°C
Wind Press
QNH
hPa
Press
MSL
hPa
Rain
since 9 am
mm
Dir
 
Spd
km/h
Gust
km/h
Spd
kts
Gust
kts
21/11:30pm 11.2 8.2 7.5 78 1.8 SSE 13 15 7 8 1029.1 1029.1 -
21/11:00pm 11.0 8.2 6.9 76 1.9 ESE 11 17 6 9 1029.4 1029.4 -
21/10:30pm 11.1 7.6 7.0 76 2.0 ESE 15 19 8 10 1029.4 1029.4 -
21/10:00pm 11.0 7.8 6.9 76 1.9 E 13 17 7 9 1029.7 1029.7 -
21/09:30pm 10.8 8.0 6.9 77 1.8 E 11 15 6 8 1030.0 1030.0 -
21/09:00pm 10.8 7.7 7.3 79 1.7 E 13 17 7 9 1029.8 1029.8 -
21/08:30pm 11.6 7.8 7.7 77 1.9 E 17 20 9 11 1029.6 1029.6 -
21/08:00pm 11.9 8.3 8.2 78 1.8 ENE 17 22 9 12 1029.5 1029.5 -
21/07:30pm 12.7 8.6 8.6 76 2.0 ENE 20 32 11 17 1029.4 1029.4 -
21/07:00pm 13.8 9.1 9.3 74 2.3 ENE 24 28 13 15 1029.3 1029.3 -
21/06:30pm 14.4 8.8 8.8 69 2.8 NE 28 35 15 19 1029.2 1029.2 -
21/06:00pm 14.9 10.0 8.6 66 3.2 NE 24 32 13 17 1029.7 1029.7 -
21/05:30pm 15.2 10.0 8.7 65 3.3 NE 26 32 14 17 1029.9 1029.9 -
21/05:00pm 15.5 10.2 8.5 63 3.5 NE 26 32 14 17 1029.9 1029.9 -
21/04:30pm 15.7 9.8 7.7 59 4.0 NE 28 33 15 18 1030.5 1030.5 -
21/04:00pm 16.0 10.6 8.2 60 3.9 NE 26 35 14 19 1030.7 1030.7 -
21/03:30pm 16.3 10.8 9.0 62 3.8 NE 28 35 15 19 1031.0 1031.0 -
21/03:00pm 16.0 10.2 8.0 59 4.0 NE 28 35 15 19 1031.4 1031.4 0.0
21/02:30pm 16.0 10.6 8.0 59 4.0 NE 26 32 14 17 1031.6 1031.6 0.0
21/02:00pm 16.5 11.8 9.4 63 3.7 NE 24 30 13 16 1032.2 1032.2 0.0
21/01:30pm 16.5 11.7 7.4 55 4.5 NE 22 32 12 17 1032.7 1032.7 0.0
21/01:00pm 16.2 10.3 7.4 56 4.3 ENE 28 33 15 18 1032.9 1032.9 0.0
21/12:30pm 15.9 9.9 6.9 55 4.4 ENE 28 35 15 19 1033.1 1033.1 0.0
21/12:00pm 15.8 11.1 7.6 58 4.1 NE 22 28 12 15 1033.5 1033.5 0.0
21/11:30am 15.3 11.3 6.6 56 4.2 E 17 24 9 13 1033.8 1033.8 0.0
21/11:00am 14.7 10.2 6.8 59 3.8 NE 20 24 11 13 1034.2 1034.2 0.0
21/10:30am 13.5 8.6 4.9 56 4.0 E 20 28 11 15 1034.5 1034.5 0.0
21/10:00am 13.6 9.0 5.7 59 3.7 E 19 24 10 13 1034.5 1034.5 0.0
21/09:30am 13.0 9.4 6.6 65 3.1 ESE 15 20 8 11 1034.5 1034.5 0.0
21/09:00am 12.1 7.6 5.9 66 2.9 SE 19 26 10 14 1034.5 1034.5 0.0
21/08:30am 11.3 7.1 5.8 69 2.6 SE 17 24 9 13 1034.5 1034.5 0.0
21/08:00am 10.8 6.3 6.0 72 2.2 SE 19 20 10 11 1034.5 1034.5 0.0
21/07:30am 9.9 5.1 5.5 74 2.0 SSE 20 24 11 13 1034.0 1034.0 0.0
21/07:00am 9.5 5.3 5.9 78 1.6 SSE 17 20 9 11 1033.7 1033.7 0.0
21/06:30am 8.3 4.0 5.2 81 1.4 SSE 17 19 9 10 1033.5 1033.5 0.0
21/06:00am 8.0 3.6 4.9 81 1.4 SSE 17 20 9 11 1033.2 1033.2 0.0
21/05:30am 7.2 2.3 4.3 82 1.3 SSE 19 20 10 11 1033.1 1033.1 0.0
21/05:00am 7.0 1.9 4.3 83 1.2 SSE 20 22 11 12 1033.2 1033.2 0.0
21/04:30am 6.4 1.9 4.2 86 0.9 S 17 20 9 11 1033.5 1033.5 0.0
21/04:00am 6.0 1.0 3.8 86 0.9 S 19 20 10 11 1033.6 1033.6 0.0
21/03:30am 5.6 1.4 3.8 88 0.8 S 15 20 8 11 1033.7 1033.7 0.0
21/03:00am 5.0 0.6 2.9 86 0.8 S 15 19 8 10 1033.9 1033.9 0.0
21/02:30am 5.3 1.0 3.2 86 0.9 S 15 19 8 10 1034.2 1034.2 0.0
21/02:00am 5.7 1.1 3.5 86 0.9 S 17 19 9 10 1034.3 1034.3 0.0
21/01:30am 5.3 0.6 3.2 86 0.9 SSE 17 20 9 11 1034.4 1034.4 0.0
21/01:00am 5.9 1.2 3.4 84 1.0 S 17 19 9 10 1034.8 1034.8 0.0
21/12:30am 6.3 2.1 3.6 83 1.1 SSE 15 17 8 9 1034.9 1034.9 0.0
21/12:00am 6.2 2.0 3.9 85 1.0 SSE 15 19 8 10 1034.9 1034.9 0.0
 
Date/Time
EDT
Temp
°C
App
Temp
°C
Dew
Point
Rel
Hum
%
Delta-T
°C
Wind Press
QNH
hPa
Press
MSL
hPa
Rain
since 9 am
mm
Dir
 
Spd
km/h
Gust
km/h
Spd
kts
Gust
kts
20/11:30pm 6.3 2.4 3.6 83 1.1 SSE 13 17 7 9 1035.2 1035.2 0.0
20/11:00pm 7.0 2.8 3.6 79 1.4 SSE 15 17 8 9 1035.3 1035.3 0.0
20/10:30pm 7.6 3.4 4.0 78 1.6 SE 15 17 8 9 1035.3 1035.3 0.0
20/10:00pm 7.1 3.3 3.9 80 1.4 SSE 13 13 7 7 1035.3 1035.3 0.0
20/09:30pm 7.3 3.1 3.9 79 1.5 SSE 15 17 8 9 1035.3 1035.3 0.0
20/09:00pm 7.1 3.5 3.2 76 1.6 S 11 13 6 7 1035.0 1035.0 0.0
20/08:30pm 8.0 4.9 3.7 74 1.8 SSE 9 11 5 6 1034.6 1034.6 0.0
20/08:00pm 9.4 8.0 3.6 67 2.5 CALM 0 6 0 3 1034.3 1034.3 0.0
20/07:30pm 10.8 8.1 3.6 61 3.2 N 7 11 4 6 1034.1 1034.1 0.0
20/07:00pm 11.5 8.3 3.3 57 3.6 NNW 9 11 5 6 1033.8 1033.8 0.0
20/06:30pm 11.7 8.1 2.7 54 3.9 N 11 15 6 8 1033.7 1033.7 0.0
20/06:00pm 12.1 8.2 3.3 55 3.8 N 13 17 7 9 1033.8 1033.8 0.0
20/05:30pm 12.3 7.9 2.5 51 4.3 N 15 17 8 9 1033.8 1033.8 0.0
20/05:00pm 12.1 7.3 2.6 52 4.1 N 17 20 9 11 1033.7 1033.7 0.0
20/04:30pm 12.6 7.4 2.5 50 4.4 N 19 22 10 12 1033.7 1033.7 0.0
20/04:00pm 12.8 7.4 2.6 50 4.4 N 20 26 11 14 1033.7 1033.7 0.0
20/03:30pm 13.0 7.8 2.5 49 4.6 N 19 24 10 13 1033.8 1033.8 0.0
20/03:00pm 13.0 7.5 0.7 43 5.1 N 19 24 10 13 1033.9 1033.9 0.0
20/02:30pm 13.1 7.0 0.5 42 5.3 N 22 26 12 14 1034.1 1034.1 0.0
20/02:00pm 13.1 7.5 1.5 45 4.9 N 20 26 11 14 1034.3 1034.3 0.0
20/01:30pm 13.3 7.9 2.5 48 4.7 N 20 26 11 14 1034.5 1034.5 0.0

Other Formats:

Comma delimited format used in spreadsheet applications
http://www.bom.gov.au/fwo/IDT60801/IDT60801.95960.axf

JavaScript Object Notation format (JSON) in row-major order
http://www.bom.gov.au/fwo/IDT60801/IDT60801.95960.json